createdAt,value
2023-01-19T00:04:20.993Z,2.20
2023-01-19T00:09:23.129Z,2.42
2023-01-19T00:14:25.123Z,2.20
2023-01-19T00:19:28.667Z,2.90
2023-01-19T00:24:30.603Z,2.00
2023-01-19T00:29:34.179Z,4.47
2023-01-19T00:34:39.586Z,1.95
2023-01-19T00:39:41.606Z,1.70
2023-01-19T00:44:43.625Z,1.83
2023-01-19T00:49:46.869Z,3.00
2023-01-19T00:54:48.952Z,2.22
2023-01-19T00:59:50.876Z,2.35
2023-01-19T01:04:56.735Z,1.67
2023-01-19T01:09:58.670Z,1.70
2023-01-19T01:15:00.619Z,1.80
2023-01-19T01:27:55.204Z,1.85
2023-01-19T01:32:58.983Z,2.63
2023-01-19T01:38:01.385Z,3.22
2023-01-19T01:43:03.615Z,2.35
2023-01-19T01:48:12.359Z,1.90
2023-01-19T01:53:15.932Z,0.82
2023-01-19T01:58:17.933Z,0.98
2023-01-19T02:03:23.593Z,1.90
2023-01-19T02:08:50.163Z,1.80
2023-01-19T02:13:52.840Z,1.13
2023-01-19T02:18:57.326Z,1.08
2023-01-19T02:24:02.904Z,2.03
2023-01-19T02:29:08.200Z,0.30
2023-01-19T02:41:18.001Z,1.45
2023-01-19T02:46:20.076Z,2.05
2023-01-19T02:51:24.961Z,2.05
2023-01-19T02:56:54.958Z,1.48
2023-01-19T03:02:10.701Z,1.00
2023-01-19T03:07:20.870Z,1.42
2023-01-19T03:19:34.858Z,1.35
2023-01-19T03:24:40.837Z,0.82
2023-01-19T03:29:48.257Z,4.63
2023-01-19T03:34:54.824Z,1.52
2023-01-19T03:39:56.880Z,2.15
2023-01-19T03:45:03.591Z,1.92
2023-01-19T03:50:13.739Z,2.47
2023-01-19T03:55:15.651Z,2.33
2023-01-19T04:00:18.304Z,1.58
2023-01-19T04:05:22.367Z,1.17
2023-01-19T04:10:25.203Z,2.10
2023-01-19T04:15:28.687Z,2.50
2023-01-19T04:20:32.028Z,1.65
2023-01-19T04:25:33.946Z,1.00
2023-01-19T04:30:35.936Z,1.30
2023-01-19T04:35:39.236Z,1.73
2023-01-19T04:40:41.249Z,1.77
2023-01-19T04:45:44.782Z,2.17
2023-01-19T04:50:48.152Z,3.20
2023-01-19T04:55:53.526Z,2.05
2023-01-19T05:00:55.527Z,2.50
2023-01-19T05:05:59.083Z,5.15
2023-01-19T05:11:01.109Z,6.63
2023-01-19T05:16:03.359Z,11.75
2023-01-19T05:21:07.303Z,4.85
2023-01-19T05:36:15.687Z,14.32
2023-01-19T05:41:17.769Z,7.38
2023-01-19T05:46:19.738Z,10.80
2023-01-19T05:51:23.016Z,9.07
2023-01-19T05:56:24.992Z,12.20
2023-01-19T06:01:27.125Z,13.25
2023-01-19T06:06:30.439Z,11.45
2023-01-19T06:11:32.363Z,13.10
2023-01-19T06:16:34.424Z,13.02
2023-01-19T06:21:38.198Z,9.32
2023-01-19T06:26:40.206Z,13.63
2023-01-19T06:31:42.582Z,9.52
2023-01-19T06:36:46.487Z,10.63
2023-01-19T06:41:48.469Z,18.10
2023-01-19T06:46:50.402Z,15.50
2023-01-19T06:51:53.799Z,12.25
2023-01-19T06:56:55.779Z,10.32
2023-01-19T07:01:57.873Z,9.57
2023-01-19T07:07:01.453Z,11.07
2023-01-19T07:12:03.812Z,12.90
2023-01-19T07:17:05.810Z,14.70
2023-01-19T07:22:09.081Z,38.40
2023-01-19T07:27:14.704Z,18.08
2023-01-19T07:32:16.637Z,26.30
2023-01-19T07:37:20.188Z,16.02
2023-01-19T07:42:22.151Z,22.02
2023-01-19T07:47:24.116Z,21.25
2023-01-19T07:52:27.379Z,27.40
2023-01-19T07:57:29.885Z,33.30
2023-01-19T08:02:33.979Z,26.33
2023-01-19T08:07:37.298Z,23.30
2023-01-19T08:12:39.336Z,20.33
2023-01-19T08:17:41.292Z,37.28
2023-01-19T08:22:47.202Z,22.80
2023-01-19T08:27:49.154Z,19.45
2023-01-19T08:32:51.274Z,33.83
2023-01-19T08:37:54.545Z,15.25
2023-01-19T08:43:00.962Z,28.10
2023-01-19T08:48:04.002Z,37.58
2023-01-19T08:53:07.828Z,35.60
2023-01-19T08:58:10.142Z,39.60
2023-01-19T09:03:13.698Z,33.10
2023-01-19T09:08:17.107Z,41.00
2023-01-19T09:13:20.202Z,23.73
2023-01-19T09:18:22.466Z,27.35
2023-01-19T09:23:26.024Z,20.60
2023-01-19T09:28:29.362Z,25.70
2023-01-19T09:33:31.355Z,39.95
2023-01-19T09:38:34.674Z,21.80
2023-01-19T09:43:41.095Z,40.17
2023-01-19T09:48:46.557Z,30.05
2023-01-19T09:53:58.293Z,32.80
2023-01-19T09:59:00.799Z,40.00
2023-01-19T10:04:27.404Z,41.05
2023-01-19T10:09:35.838Z,27.23
2023-01-19T10:14:45.968Z,35.78
2023-01-19T10:19:51.662Z,31.85
2023-01-19T10:24:56.976Z,12.55
2023-01-19T10:30:00.056Z,43.85
2023-01-19T10:35:12.726Z,15.60
2023-01-19T10:40:25.417Z,16.17
2023-01-19T10:45:30.763Z,30.05
2023-01-19T10:50:34.941Z,44.13
2023-01-19T10:55:41.741Z,19.05
2023-01-19T11:00:44.320Z,22.92
2023-01-19T11:05:46.513Z,30.88
2023-01-19T11:10:58.176Z,26.52
2023-01-19T11:16:05.903Z,10.45
2023-01-19T11:21:10.486Z,14.93
2023-01-19T11:26:24.638Z,14.05
2023-01-19T11:31:33.079Z,19.83
2023-01-19T11:36:36.943Z,21.63
2023-01-19T11:41:40.835Z,15.05
2023-01-19T11:46:45.011Z,6.45
2023-01-19T11:56:56.703Z,7.35
2023-01-19T12:02:02.388Z,10.38
2023-01-19T12:07:10.341Z,7.57
2023-01-19T12:12:28.771Z,17.95
2023-01-19T12:17:35.129Z,18.83
2023-01-19T12:22:44.708Z,22.25
2023-01-19T12:27:49.510Z,19.52
2023-01-19T12:32:51.580Z,18.17
2023-01-19T12:37:53.489Z,28.17
2023-01-19T12:43:00.726Z,34.97
2023-01-19T12:48:04.407Z,17.13
2023-01-19T12:53:16.811Z,18.48
2023-01-19T12:58:23.010Z,24.60
2023-01-19T13:03:57.044Z,21.17
2023-01-19T13:09:00.727Z,13.15
2023-01-19T13:14:35.418Z,21.20
2023-01-19T13:19:46.006Z,15.30
2023-01-19T13:25:10.336Z,23.20
2023-01-19T13:30:17.498Z,14.15
2023-01-19T13:35:22.378Z,12.57
2023-01-19T13:40:32.469Z,8.55
2023-01-19T13:45:38.031Z,16.42
2023-01-19T13:50:42.726Z,24.15
2023-01-19T13:55:44.714Z,24.45
2023-01-19T14:00:46.709Z,13.80
2023-01-19T14:05:52.400Z,15.25
2023-01-19T14:11:02.484Z,15.85
2023-01-19T14:16:08.012Z,16.05
2023-01-19T14:21:13.451Z,7.75
2023-01-19T14:26:45.961Z,10.10
2023-01-19T14:31:49.738Z,13.40
2023-01-19T14:36:53.387Z,14.32
2023-01-19T14:41:59.099Z,20.02
2023-01-19T14:47:01.556Z,16.80
2023-01-19T14:52:08.348Z,19.70
2023-01-19T14:57:12.563Z,17.00
2023-01-19T15:07:19.396Z,21.00
2023-01-19T15:12:26.766Z,15.52
2023-01-19T15:17:28.804Z,18.38
2023-01-19T15:22:32.132Z,21.17
2023-01-19T15:27:34.092Z,25.38
2023-01-19T15:32:36.137Z,23.42
2023-01-19T15:37:39.422Z,35.00
2023-01-19T15:42:56.491Z,20.35
2023-01-19T15:47:58.545Z,9.25
2023-01-19T15:53:01.966Z,12.20
2023-01-19T15:58:04.099Z,18.10
2023-01-19T16:03:06.122Z,11.95
2023-01-19T16:08:09.788Z,13.25
2023-01-19T16:13:12.184Z,6.30
2023-01-19T16:18:14.213Z,12.52
2023-01-19T16:23:17.543Z,6.82
2023-01-19T16:28:19.587Z,10.70
2023-01-19T16:33:21.642Z,15.70
2023-01-19T16:38:25.061Z,13.73
2023-01-19T16:43:28.335Z,13.63
2023-01-19T16:48:32.229Z,9.15
2023-01-19T16:53:35.640Z,8.52
2023-01-19T16:58:38.361Z,16.42
2023-01-19T17:03:40.950Z,17.80
2023-01-19T17:08:44.339Z,32.05
2023-01-19T17:13:47.286Z,11.50
2023-01-19T17:18:49.473Z,24.50
2023-01-19T17:23:54.333Z,16.33
2023-01-19T17:28:58.812Z,32.85
2023-01-19T17:34:01.542Z,18.90
2023-01-19T17:39:07.950Z,27.08
2023-01-19T17:44:10.520Z,30.23
2023-01-19T17:49:12.481Z,27.02
2023-01-19T17:54:15.818Z,25.35
2023-01-19T17:59:17.903Z,25.45
2023-01-19T18:04:19.925Z,25.38
2023-01-19T18:09:23.292Z,25.30
2023-01-19T18:14:25.411Z,23.13
2023-01-19T18:19:27.498Z,26.13
2023-01-19T18:24:30.954Z,24.90
2023-01-19T18:29:33.083Z,24.00
2023-01-19T18:34:35.377Z,25.85
2023-01-19T18:39:38.736Z,50.03
2023-01-19T18:44:40.872Z,21.02
2023-01-19T18:49:42.843Z,34.53
2023-01-19T18:54:47.879Z,25.23
2023-01-19T18:59:49.997Z,20.27
2023-01-19T19:04:52.018Z,27.25
2023-01-19T19:09:55.384Z,13.45
2023-01-19T19:14:57.440Z,13.38
2023-01-19T19:19:59.409Z,31.73
2023-01-19T19:25:02.820Z,18.90
2023-01-19T19:30:05.661Z,18.88
2023-01-19T19:35:08.394Z,10.98
2023-01-19T19:40:12.745Z,17.52
2023-01-19T19:45:15.629Z,17.38
2023-01-19T19:50:17.771Z,15.90
2023-01-19T19:55:21.205Z,17.30
2023-01-19T20:00:23.471Z,14.02
2023-01-19T20:05:25.450Z,11.50
2023-01-19T20:10:30.002Z,13.70
2023-01-19T20:15:32.274Z,9.85
2023-01-19T20:20:34.625Z,15.15
2023-01-19T20:25:40.033Z,13.30
2023-01-19T20:30:42.166Z,14.43
2023-01-19T20:35:44.237Z,18.80
2023-01-19T20:40:47.587Z,13.57
2023-01-19T20:45:49.641Z,14.00
2023-01-19T20:50:57.713Z,19.75
2023-01-19T20:56:06.143Z,40.00
2023-01-19T21:01:12.741Z,28.88
2023-01-19T21:06:15.652Z,45.33
2023-01-19T21:11:21.066Z,21.70
2023-01-19T21:16:24.404Z,23.38
2023-01-19T21:21:31.515Z,32.97
2023-01-19T21:26:35.927Z,28.83
2023-01-19T21:31:37.973Z,25.60
2023-01-19T21:36:40.151Z,35.85
2023-01-19T21:41:44.622Z,25.13
2023-01-19T21:46:46.628Z,31.02
2023-01-19T21:51:50.601Z,32.38
2023-01-19T21:56:53.927Z,20.30
2023-01-19T22:01:56.095Z,28.92
2023-01-19T22:06:58.166Z,28.63
2023-01-19T22:12:01.825Z,29.65
2023-01-19T22:17:04.803Z,32.95
2023-01-19T22:22:06.799Z,28.23
2023-01-19T22:27:10.089Z,28.25
2023-01-19T22:32:12.030Z,25.27
2023-01-19T22:37:14.042Z,29.13
2023-01-19T22:42:17.347Z,24.90
2023-01-19T22:47:19.289Z,22.45
2023-01-19T22:52:21.259Z,18.55
2023-01-19T22:57:24.866Z,20.85
2023-01-19T23:02:26.879Z,15.30
2023-01-19T23:07:28.838Z,19.63
2023-01-19T23:12:32.149Z,15.40
2023-01-19T23:17:34.090Z,10.45
2023-01-19T23:22:36.443Z,14.93
2023-01-19T23:27:39.738Z,25.90
2023-01-19T23:32:46.886Z,14.68
2023-01-19T23:37:49.106Z,14.30
2023-01-19T23:42:54.416Z,26.65
2023-01-19T23:47:56.484Z,15.82
2023-01-19T23:52:58.465Z,19.23
2023-01-19T23:58:01.784Z,15.23
